Time;durP1;ratioP1;P1;durP2;ratioP2;P2;SDS_P1;SDS_P2;PMS_P1;PMS_P2;Temp;Humidity;BMP_temperature;BMP_pressure;BME280_temperature;BME280_humidity;BME280_pressure;Samples;Min_cycle;Max_cycle;Signal;HPM_P1;HPM_P2
2022/06/16 00:01:34;;;;;;;4.93;3.28;;;18.00;99.90;;;;;;6310206;28;20576;-69
2022/06/16 00:04:45;;;;;;;2.95;2.75;;;18.00;99.90;;;;;;6310060;28;20290;-69
2022/06/16 00:07:52;;;;;;;10.20;3.10;;;18.00;99.90;;;;;;6309962;28;20294;-68
2022/06/16 00:14:23;;;;;;;10.40;2.72;;;18.00;99.90;;;;;;6285064;28;20295;-69
2022/06/16 00:17:29;;;;;;;3.40;3.10;;;17.90;99.90;;;;;;6285130;28;20247;-69
2022/06/16 00:20:34;;;;;;;9.43;3.05;;;17.90;99.90;;;;;;6285697;28;20276;-69
2022/06/16 00:23:40;;;;;;;2.75;2.65;;;17.80;99.90;;;;;;6284662;28;20570;-69
2022/06/16 00:26:45;;;;;;;2.63;2.50;;;17.70;99.90;;;;;;6285279;28;20271;-68
2022/06/16 00:29:52;;;;;;;2.72;2.55;;;17.60;99.90;;;;;;6267048;28;20294;-69
2022/06/16 00:32:57;;;;;;;2.42;2.42;;;17.50;99.90;;;;;;6284371;28;20295;-69
2022/06/16 00:36:03;;;;;;;2.78;2.67;;;17.40;99.90;;;;;;6285271;28;20319;-69
2022/06/16 00:39:08;;;;;;;2.67;2.50;;;17.50;99.90;;;;;;6284611;28;20295;-69
2022/06/16 00:42:18;;;;;;;3.38;2.75;;;17.50;99.90;;;;;;6284556;28;20551;-69
2022/06/16 00:45:50;;;;;;;6.18;2.50;;;17.40;99.90;;;;;;6267715;28;20267;-69
2022/06/16 00:48:59;;;;;;;2.58;2.38;;;17.40;99.90;;;;;;6284674;28;20290;-68
2022/06/16 00:52:12;;;;;;;3.85;2.80;;;17.40;99.90;;;;;;6284341;28;20291;-68
2022/06/16 00:55:18;;;;;;;2.97;2.88;;;17.40;99.90;;;;;;6284472;28;20447;-68
2022/06/16 00:58:24;;;;;;;2.38;2.38;;;17.30;99.90;;;;;;6284056;28;20295;-68
2022/06/16 01:01:32;;;;;;;2.55;2.47;;;17.30;99.90;;;;;;6288072;28;20271;-68
2022/06/16 01:04:53;;;;;;;3.92;2.45;;;17.20;99.90;;;;;;6287261;28;20291;-68
2022/06/16 01:07:59;;;;;;;2.63;2.53;;;17.20;99.90;;;;;;6287462;28;20299;-68
2022/06/16 01:13:41;;;;;;;2.70;2.60;;;17.20;99.90;;;;;;6289414;28;20263;-68
2022/06/16 01:14:54;;;;;;;2.58;2.47;;;17.30;99.90;;;;;;6288158;28;20318;-68
2022/06/16 01:18:08;;;;;;;2.67;2.45;;;17.30;99.90;;;;;;6271184;28;20295;-68
2022/06/16 01:21:29;;;;;;;2.50;2.40;;;17.30;99.90;;;;;;6289026;28;20276;-68
2022/06/16 01:24:53;;;;;;;2.60;2.20;;;17.20;99.90;;;;;;6271440;28;20310;-68
2022/06/16 01:28:19;;;;;;;2.75;2.65;;;17.30;99.90;;;;;;6288188;28;20307;-68
2022/06/16 01:31:29;;;;;;;2.28;2.28;;;17.30;99.90;;;;;;6271225;28;20276;-68
2022/06/16 01:34:39;;;;;;;2.60;2.60;;;17.30;99.90;;;;;;6270023;28;20299;-68
2022/06/16 01:37:56;;;;;;;2.78;2.67;;;17.30;99.90;;;;;;6288130;28;20302;-68
2022/06/16 01:41:10;;;;;;;2.95;2.92;;;17.20;99.90;;;;;;6288649;28;20287;-68
2022/06/16 01:44:24;;;;;;;2.65;2.50;;;17.20;99.90;;;;;;6270213;28;20298;-68
2022/06/16 01:47:32;;;;;;;2.70;2.60;;;17.20;99.90;;;;;;6270054;28;20296;-68
2022/06/16 01:50:46;;;;;;;2.65;2.55;;;17.20;99.90;;;;;;6287152;28;20347;-68
2022/06/16 01:53:56;;;;;;;2.60;2.40;;;17.20;99.90;;;;;;6287493;28;20303;-68
2022/06/16 01:57:06;;;;;;;2.60;2.50;;;17.20;99.90;;;;;;6270598;28;20271;-68
2022/06/16 02:00:15;;;;;;;2.50;2.40;;;17.20;99.90;;;;;;6286007;28;20275;-68
2022/06/16 02:03:29;;;;;;;2.95;2.22;;;17.20;99.90;;;;;;6287645;28;20585;-68
2022/06/16 02:06:38;;;;;;;2.63;2.42;;;17.20;99.90;;;;;;6287891;28;20267;-68
2022/06/16 02:09:51;;;;;;;3.95;2.40;;;17.30;99.90;;;;;;6266977;28;20287;-68
2022/06/16 02:12:58;;;;;;;2.45;2.22;;;17.20;99.90;;;;;;6244877;28;20308;-68
2022/06/16 02:16:26;;;;;;;2.20;2.20;;;17.30;99.90;;;;;;6244927;28;20272;-68
2022/06/16 02:19:33;;;;;;;2.55;2.40;;;17.30;99.90;;;;;;6244559;28;20296;-68
2022/06/16 02:22:39;;;;;;;2.88;2.53;;;17.30;99.90;;;;;;6261712;28;20551;-68
2022/06/16 02:25:48;;;;;;;2.55;2.55;;;17.30;99.90;;;;;;6239352;28;20299;-68
2022/06/16 02:28:56;;;;;;;2.85;2.60;;;17.40;99.90;;;;;;6260736;28;20295;-69
2022/06/16 02:32:27;;;;;;;7.30;2.75;;;17.40;99.90;;;;;;6244821;28;20268;-69
2022/06/16 02:35:43;;;;;;;10.57;3.10;;;17.40;99.90;;;;;;6261498;28;20295;-69
2022/06/16 02:38:56;;;;;;;7.15;3.17;;;17.40;99.90;;;;;;6261843;28;20295;-69
2022/06/16 02:42:13;;;;;;;7.10;3.30;;;17.30;99.90;;;;;;6260954;28;20272;-69
2022/06/16 02:45:26;;;;;;;7.05;3.03;;;17.40;99.90;;;;;;6260877;28;20279;-68
2022/06/16 02:48:39;;;;;;;3.35;2.90;;;17.50;99.90;;;;;;6261909;28;20449;-68
2022/06/16 02:51:58;;;;;;;3.20;2.83;;;17.50;99.90;;;;;;6261124;28;20271;-68
2022/06/16 02:55:11;;;;;;;3.35;3.15;;;17.60;99.90;;;;;;6243851;28;20299;-68
2022/06/16 02:58:20;;;;;;;3.33;3.00;;;17.60;99.90;;;;;;6261386;28;20296;-68
2022/06/16 03:01:26;;;;;;;3.25;3.08;;;17.60;99.90;;;;;;6236665;28;20276;-69
2022/06/16 03:04:36;;;;;;;3.80;3.33;;;17.60;99.90;;;;;;6243033;28;20502;-68
2022/06/16 03:07:45;;;;;;;2.75;2.65;;;17.60;99.90;;;;;;6260112;28;20291;-68
2022/06/16 03:11:02;;;;;;;3.15;2.65;;;17.60;99.90;;;;;;6244141;28;20263;-68
2022/06/16 03:14:10;;;;;;;2.47;2.47;;;17.60;99.90;;;;;;6259927;28;20300;-68
2022/06/16 03:17:22;;;;;;;2.60;2.60;;;17.60;99.90;;;;;;6259625;28;20275;-68
2022/06/16 03:20:28;;;;;;;2.85;2.75;;;17.50;99.90;;;;;;6260107;28;20263;-68
2022/06/16 03:23:35;;;;;;;3.75;2.92;;;17.60;99.90;;;;;;6262540;28;20302;-68
2022/06/16 03:26:42;;;;;;;2.70;2.70;;;17.60;99.90;;;;;;6284935;28;20274;-68
2022/06/16 03:29:47;;;;;;;2.50;2.40;;;17.60;99.90;;;;;;6284084;28;20302;-68
2022/06/16 03:32:53;;;;;;;3.00;2.90;;;17.70;99.90;;;;;;6284650;28;20295;-68
2022/06/16 03:36:00;;;;;;;3.05;2.90;;;17.70;99.90;;;;;;6268156;28;20282;-68
2022/06/16 03:39:13;;;;;;;2.88;2.72;;;17.60;99.90;;;;;;6284717;28;20298;-68
2022/06/16 03:42:26;;;;;;;3.05;2.88;;;17.60;99.90;;;;;;6267727;28;20291;-68
2022/06/16 03:45:31;;;;;;;2.58;2.47;;;17.70;99.90;;;;;;6268155;28;20275;-68
2022/06/16 03:48:37;;;;;;;3.13;2.75;;;17.70;99.90;;;;;;6284113;28;20590;-68
2022/06/16 03:51:42;;;;;;;2.55;2.40;;;17.80;99.90;;;;;;6267780;28;20267;-68
2022/06/16 03:54:52;;;;;;;2.85;2.58;;;17.80;99.90;;;;;;6284038;28;20303;-68
2022/06/16 03:57:58;;;;;;;3.08;2.42;;;17.80;99.90;;;;;;6267695;28;20335;-68
2022/06/16 04:01:05;;;;;;;4.43;2.38;;;17.70;99.90;;;;;;6267593;28;20542;-68
2022/06/16 04:04:11;;;;;;;4.60;2.28;;;17.70;99.90;;;;;;6283749;28;20642;-68
2022/06/16 04:07:26;;;;;;;2.20;2.10;;;17.80;99.90;;;;;;6267573;28;20291;-68
2022/06/16 04:10:49;;;;;;;2.63;2.42;;;17.90;99.90;;;;;;6283871;28;20328;-68
2022/06/16 04:13:56;;;;;;;3.78;2.40;;;17.90;99.90;;;;;;6283774;28;20294;-68
2022/06/16 04:17:02;;;;;;;2.25;2.08;;;17.90;99.90;;;;;;6284267;28;20271;-68
2022/06/16 04:20:16;;;;;;;2.33;2.28;;;17.90;99.90;;;;;;6283376;28;20298;-68
2022/06/16 04:23:27;;;;;;;2.38;2.00;;;17.80;99.90;;;;;;6267144;28;20352;-68
2022/06/16 04:26:36;;;;;;;2.13;2.00;;;17.80;99.90;;;;;;6283614;28;20318;-68
2022/06/16 04:29:42;;;;;;;2.67;2.08;;;17.80;99.90;;;;;;6283512;28;20472;-68
2022/06/16 04:32:51;;;;;;;2.17;2.10;;;17.90;99.90;;;;;;6283670;28;20295;-68
2022/06/16 04:35:58;;;;;;;3.97;2.30;;;17.90;99.90;;;;;;6288270;28;20286;-68
2022/06/16 04:39:08;;;;;;;2.38;2.25;;;17.90;99.90;;;;;;6271714;28;20295;-68
2022/06/16 04:42:16;;;;;;;2.45;2.20;;;17.90;99.90;;;;;;6271106;28;20270;-68
2022/06/16 04:45:22;;;;;;;1.95;1.85;;;18.00;99.90;;;;;;6288577;28;20279;-68
2022/06/16 04:48:28;;;;;;;2.00;1.90;;;18.00;99.90;;;;;;6271061;28;20299;-68
2022/06/16 04:51:34;;;;;;;1.90;1.90;;;18.00;99.90;;;;;;6288584;28;20275;-67
2022/06/16 04:54:39;;;;;;;2.78;2.10;;;18.10;99.90;;;;;;6287932;28;20309;-68
2022/06/16 04:58:02;;;;;;;2.60;1.90;;;18.10;99.90;;;;;;6271088;28;20295;-68
2022/06/16 05:01:11;;;;;;;7.78;2.00;;;18.10;99.90;;;;;;6288768;28;20271;-68
2022/06/16 05:04:34;;;;;;;2.08;1.75;;;18.20;99.90;;;;;;6288584;28;20300;-68
2022/06/16 05:07:50;;;;;;;1.60;1.50;;;18.20;99.90;;;;;;6287056;28;20320;-68
2022/06/16 05:11:07;;;;;;;2.03;1.65;;;18.30;99.90;;;;;;6288125;28;20414;-67
2022/06/16 05:14:17;;;;;;;1.73;1.63;;;18.40;99.90;;;;;;6287294;28;20298;-67
2022/06/16 05:17:42;;;;;;;1.77;1.52;;;18.50;99.90;;;;;;6288610;28;20460;-69
2022/06/16 05:21:05;;;;;;;7.03;1.90;;;18.60;99.90;;;;;;6287709;28;20275;-68
2022/06/16 05:24:31;;;;;;;1.52;1.50;;;19.10;99.90;;;;;;6257069;28;20583;-68
2022/06/16 05:27:55;;;;;;;1.95;1.50;;;19.40;99.90;;;;;;6288101;28;20315;-67
2022/06/16 05:31:19;;;;;;;2.55;1.60;;;19.60;99.90;;;;;;6287320;28;20271;-67
2022/06/16 05:34:44;;;;;;;3.13;1.80;;;19.80;99.90;;;;;;6287787;28;20330;-67
2022/06/16 05:38:19;;;;;;;1.85;1.75;;;19.90;99.90;;;;;;6270631;28;20294;-68
2022/06/16 05:41:48;;;;;;;2.47;1.65;;;19.90;99.90;;;;;;6288391;28;20270;-68
2022/06/16 05:45:22;;;;;;;3.85;2.15;;;19.80;99.90;;;;;;6277116;28;20266;-68
2022/06/16 05:48:34;;;;;;;1.65;1.65;;;19.80;99.90;;;;;;6270109;28;20290;-68
2022/06/16 05:51:46;;;;;;;2.67;1.40;;;19.80;99.90;;;;;;6270480;28;20276;-68
2022/06/16 05:54:56;;;;;;;1.50;1.50;;;19.70;99.90;;;;;;6269871;28;20611;-68
2022/06/16 05:58:04;;;;;;;1.92;1.83;;;19.60;99.90;;;;;;6286256;28;20299;-69
2022/06/16 06:01:19;;;;;;;3.58;1.33;;;19.70;99.90;;;;;;6286654;28;20339;-68
2022/06/16 06:04:32;;;;;;;5.15;1.85;;;19.60;99.90;;;;;;6285986;28;20291;-68
2022/06/16 06:18:19;;;;;;;1.75;1.20;;;19.80;99.90;;;;;;6285530;28;20299;-68
2022/06/16 06:24:53;;;;;;;1.17;1.17;;;20.00;99.90;;;;;;6285407;28;20307;-68
2022/06/16 06:28:04;;;;;;;1.15;1.13;;;20.10;99.90;;;;;;6282970;28;20298;-68
2022/06/16 06:31:11;;;;;;;1.13;1.05;;;20.10;99.90;;;;;;6268947;28;20271;-68
2022/06/16 06:34:16;;;;;;;3.80;1.35;;;20.10;99.90;;;;;;6286678;28;20295;-67
2022/06/16 06:37:25;;;;;;;1.13;1.13;;;20.30;99.90;;;;;;6286529;28;20295;-68
2022/06/16 06:40:34;;;;;;;3.20;1.27;;;20.40;99.90;;;;;;6278333;28;20267;-68
2022/06/16 06:43:40;;;;;;;1.42;1.30;;;20.40;99.90;;;;;;6286607;28;20294;-67
2022/06/16 06:46:45;;;;;;;1.30;1.30;;;20.40;99.90;;;;;;6286090;28;20283;-67
2022/06/16 06:49:50;;;;;;;1.40;1.40;;;20.40;99.80;;;;;;6286218;28;20343;-67
2022/06/16 06:52:57;;;;;;;1.65;1.30;;;20.40;99.90;;;;;;6286135;28;20295;-67
2022/06/16 06:56:02;;;;;;;2.55;1.40;;;20.60;99.40;;;;;;6286662;28;20271;-68
2022/06/16 06:59:13;;;;;;;1.10;1.10;;;20.50;99.20;;;;;;6286398;28;20300;-69
2022/06/16 07:02:19;;;;;;;4.43;1.17;;;20.40;99.50;;;;;;6285527;28;20373;-67
2022/06/16 07:05:25;;;;;;;4.75;1.20;;;20.40;99.30;;;;;;6286512;28;20276;-68
2022/06/16 07:08:33;;;;;;;0.90;0.90;;;20.50;99.30;;;;;;6285481;28;20303;-68
2022/06/16 07:11:41;;;;;;;4.03;1.40;;;20.60;99.10;;;;;;6285787;28;20267;-68
2022/06/16 07:14:49;;;;;;;1.20;1.20;;;20.50;99.00;;;;;;6285601;28;20303;-68
2022/06/16 07:17:54;;;;;;;1.20;1.20;;;20.30;98.70;;;;;;6285146;28;20467;-67
2022/06/16 07:20:59;;;;;;;1.30;1.25;;;20.30;99.00;;;;;;6285972;28;20267;-68
2022/06/16 07:24:07;;;;;;;2.80;1.20;;;20.40;99.30;;;;;;6285500;28;20581;-68
2022/06/16 07:27:13;;;;;;;8.18;1.20;;;20.40;99.10;;;;;;6285046;28;20294;-68
2022/06/16 07:30:21;;;;;;;4.80;1.30;;;20.30;98.80;;;;;;6285755;28;20204;-68
2022/06/16 07:33:27;;;;;;;4.38;1.40;;;20.50;99.00;;;;;;6277471;28;20295;-68
2022/06/16 07:36:32;;;;;;;1.20;1.20;;;20.60;98.30;;;;;;6285989;28;20270;-67
2022/06/16 07:39:38;;;;;;;2.47;1.50;;;20.60;98.20;;;;;;6285254;28;20294;-68
2022/06/16 07:42:44;;;;;;;1.42;1.40;;;20.70;98.90;;;;;;6284827;28;20607;-68
2022/06/16 07:45:50;;;;;;;3.50;1.73;;;20.90;99.30;;;;;;6285217;28;20558;-68
2022/06/16 07:48:55;;;;;;;4.38;1.58;;;20.90;99.00;;;;;;6285289;28;20299;-68
2022/06/16 07:52:01;;;;;;;6.32;1.60;;;21.00;99.20;;;;;;6285555;28;20271;-68
2022/06/16 07:55:09;;;;;;;2.40;1.75;;;21.00;98.50;;;;;;6284865;28;20298;-68
2022/06/16 07:58:15;;;;;;;2.15;1.90;;;20.80;98.00;;;;;;6284928;28;20302;-68
2022/06/16 08:01:20;;;;;;;5.32;1.50;;;21.00;98.10;;;;;;6285384;28;20271;-68
2022/06/16 08:04:26;;;;;;;2.00;1.60;;;21.10;98.20;;;;;;6284625;28;20538;-68
2022/06/16 08:07:31;;;;;;;1.30;1.30;;;21.00;96.60;;;;;;6285021;28;20290;-67
2022/06/16 08:10:38;;;;;;;5.40;1.50;;;21.00;97.40;;;;;;6288951;28;20259;-68
2022/06/16 08:13:44;;;;;;;1.60;1.50;;;21.10;97.30;;;;;;6289755;28;20294;-68
2022/06/16 08:16:49;;;;;;;1.40;1.40;;;21.10;97.60;;;;;;6290304;28;20563;-68
2022/06/16 08:19:55;;;;;;;2.70;1.30;;;21.20;97.80;;;;;;6289439;28;20298;-68
2022/06/16 08:23:00;;;;;;;1.45;1.40;;;21.30;97.70;;;;;;6289272;28;20302;-68
2022/06/16 08:26:07;;;;;;;8.82;1.90;;;21.40;97.20;;;;;;6290303;28;20299;-68
2022/06/16 08:29:16;;;;;;;1.50;1.40;;;21.50;97.10;;;;;;6289515;28;20610;-67
2022/06/16 08:32:23;;;;;;;4.93;1.30;;;21.60;97.40;;;;;;6289363;28;20275;-68
2022/06/16 08:35:29;;;;;;;3.65;1.55;;;21.80;97.10;;;;;;6289781;28;20279;-68
2022/06/16 08:38:35;;;;;;;4.90;1.80;;;21.80;97.50;;;;;;6289365;28;20491;-67
2022/06/16 08:41:49;;;;;;;1.90;1.80;;;21.80;97.60;;;;;;6289861;28;20275;-69
2022/06/16 08:45:02;;;;;;;1.80;1.70;;;21.80;98.00;;;;;;6289271;28;20291;-68
2022/06/16 08:48:25;;;;;;;5.25;1.45;;;21.80;97.00;;;;;;6289241;28;20330;-68
2022/06/16 08:51:43;;;;;;;2.38;1.35;;;21.60;97.10;;;;;;6289219;28;20585;-69
2022/06/16 08:54:59;;;;;;;1.60;1.45;;;21.30;97.90;;;;;;6288633;28;20486;-69
2022/06/16 08:58:15;;;;;;;1.42;1.42;;;21.30;98.60;;;;;;6288919;28;20578;-69
2022/06/16 09:01:24;;;;;;;1.80;1.70;;;21.10;97.80;;;;;;6289207;28;20550;-69
2022/06/16 09:04:34;;;;;;;1.77;1.50;;;21.10;98.80;;;;;;6288762;28;20295;-68
2022/06/16 09:07:47;;;;;;;3.53;1.48;;;21.20;99.20;;;;;;6288763;28;20286;-69
2022/06/16 09:11:00;;;;;;;5.75;1.40;;;21.20;98.80;;;;;;6288673;28;20401;-69
2022/06/16 09:18:32;;;;;;;2.17;1.70;;;21.20;97.80;;;;;;6287593;28;20479;-68
2022/06/16 09:21:44;;;;;;;1.40;1.40;;;21.30;97.40;;;;;;6277841;28;20270;-68
2022/06/16 09:25:07;;;;;;;1.73;1.60;;;21.40;97.20;;;;;;6262442;28;20582;-68
2022/06/16 09:28:18;;;;;;;1.58;1.48;;;21.40;96.80;;;;;;6263483;28;20307;-68
2022/06/16 09:31:27;;;;;;;2.90;2.80;;;21.30;98.00;;;;;;6263284;28;20467;-68
2022/06/16 09:34:38;;;;;;;2.00;1.90;;;21.20;96.40;;;;;;6263356;28;20300;-68
2022/06/16 09:37:48;;;;;;;1.58;1.50;;;21.10;95.50;;;;;;6263257;28;20291;-68
2022/06/16 09:40:59;;;;;;;2.05;1.65;;;20.90;95.50;;;;;;6263381;28;20288;-67
2022/06/16 09:44:12;;;;;;;1.20;1.20;;;20.70;95.40;;;;;;6262492;28;20583;-68
2022/06/16 09:47:26;;;;;;;5.47;1.50;;;20.60;95.30;;;;;;6262800;28;20267;-68
2022/06/16 09:50:41;;;;;;;6.40;1.45;;;20.60;96.30;;;;;;6263301;28;20466;-68
2022/06/16 09:53:50;;;;;;;1.33;1.23;;;20.70;96.50;;;;;;6262747;28;20291;-68
2022/06/16 09:57:01;;;;;;;1.75;1.20;;;20.70;96.10;;;;;;6263033;28;20267;-68
2022/06/16 10:00:11;;;;;;;0.95;0.95;;;20.70;96.60;;;;;;6261610;28;20296;-67
2022/06/16 10:03:29;;;;;;;1.80;1.80;;;20.70;96.50;;;;;;6262260;28;20587;-68
2022/06/16 10:06:41;;;;;;;3.47;1.60;;;20.90;96.70;;;;;;6262254;28;20269;-68
2022/06/16 10:09:52;;;;;;;1.48;1.38;;;20.80;96.30;;;;;;6262516;28;20295;-68
2022/06/16 10:13:04;;;;;;;3.88;1.55;;;20.70;96.40;;;;;;6262070;28;20303;-68
2022/06/16 10:16:15;;;;;;;2.47;1.75;;;20.70;97.70;;;;;;6262364;28;20272;-68
2022/06/16 10:19:24;;;;;;;1.77;1.48;;;20.60;98.50;;;;;;6261806;28;20300;-68
2022/06/16 10:22:32;;;;;;;3.22;2.08;;;20.60;98.40;;;;;;6261988;28;20287;-68
2022/06/16 10:25:44;;;;;;;4.85;1.70;;;20.50;98.30;;;;;;6261920;28;20300;-68
2022/06/16 10:29:06;;;;;;;2.30;1.65;;;20.60;98.80;;;;;;6261451;28;20485;-68
2022/06/16 10:32:17;;;;;;;1.85;1.70;;;20.50;98.70;;;;;;6261519;28;20276;-68
2022/06/16 10:35:24;;;;;;;1.95;1.83;;;20.60;97.90;;;;;;6261947;28;20559;-68
2022/06/16 10:38:34;;;;;;;6.07;1.83;;;20.70;96.70;;;;;;6261336;28;20295;-67
2022/06/16 10:41:44;;;;;;;2.22;2.10;;;20.70;97.40;;;;;;6261942;28;20292;-68
2022/06/16 10:44:54;;;;;;;1.83;1.75;;;20.60;98.80;;;;;;6261325;28;20388;-68
2022/06/16 10:48:02;;;;;;;2.25;1.60;;;20.50;98.10;;;;;;6260909;28;20478;-68
2022/06/16 10:51:15;;;;;;;1.88;1.63;;;20.50;99.00;;;;;;6262068;28;20276;-68
2022/06/16 10:54:28;;;;;;;3.75;1.77;;;20.40;98.80;;;;;;6261291;28;20296;-68
2022/06/16 10:57:41;;;;;;;1.48;1.30;;;20.40;98.20;;;;;;6261255;28;20299;-68
2022/06/16 11:01:10;;;;;;;10.35;1.33;;;20.30;99.40;;;;;;6261357;28;20473;-68
2022/06/16 11:04:20;;;;;;;1.92;1.30;;;20.20;99.90;;;;;;6260585;28;20290;-68
2022/06/16 11:07:34;;;;;;;3.28;1.50;;;20.30;99.90;;;;;;6260611;28;20307;-67
2022/06/16 11:10:43;;;;;;;2.72;1.30;;;20.40;99.90;;;;;;6261526;28;20269;-68
2022/06/16 11:13:56;;;;;;;3.15;1.20;;;20.40;99.90;;;;;;6260528;28;20540;-68
2022/06/16 11:17:07;;;;;;;1.75;1.33;;;20.40;99.90;;;;;;6261087;28;20276;-68
2022/06/16 11:20:22;;;;;;;1.70;1.30;;;20.40;99.90;;;;;;6260014;28;20295;-68
2022/06/16 11:23:33;;;;;;;1.02;1.00;;;20.50;99.90;;;;;;6258008;28;20292;-68
2022/06/16 11:26:44;;;;;;;0.77;0.77;;;20.70;99.90;;;;;;6261134;28;20271;-68
2022/06/16 11:29:49;;;;;;;3.35;0.90;;;20.80;96.40;;;;;;6260400;28;20299;-68
2022/06/16 11:32:55;;;;;;;9.70;8.70;;;20.90;94.90;;;;;;6260461;28;20485;-68
2022/06/16 11:36:00;;;;;;;2.20;2.10;;;21.00;93.20;;;;;;6261121;28;20276;-68
2022/06/16 11:39:11;;;;;;;0.95;0.80;;;21.10;94.00;;;;;;6260428;28;20295;-68
2022/06/16 11:42:29;;;;;;;1.98;0.75;;;21.20;91.70;;;;;;6260282;28;20291;-67
2022/06/16 11:45:41;;;;;;;2.15;0.65;;;21.40;92.70;;;;;;6259838;28;20276;-68
2022/06/16 11:49:09;;;;;;;2.20;0.75;;;21.40;90.30;;;;;;6260720;28;20296;-67
2022/06/16 11:52:22;;;;;;;1.33;0.70;;;21.50;89.70;;;;;;6260340;28;20280;-68
2022/06/16 11:55:36;;;;;;;0.70;0.70;;;21.60;91.30;;;;;;6260520;28;20272;-68
2022/06/16 11:58:57;;;;;;;2.08;0.80;;;21.70;92.40;;;;;;6260240;28;20301;-68
2022/06/16 12:02:24;;;;;;;0.70;0.70;;;21.80;90.20;;;;;;6260933;28;20299;-68
2022/06/16 12:05:37;;;;;;;0.70;0.70;;;21.80;84.90;;;;;;6235254;28;20576;-68
2022/06/16 12:08:56;;;;;;;0.68;0.68;;;21.80;85.00;;;;;;6248178;28;20303;-66
2022/06/16 12:12:08;;;;;;;2.47;1.23;;;21.70;84.10;;;;;;6273645;28;20272;-66
2022/06/16 12:15:26;;;;;;;0.60;0.60;;;21.70;86.70;;;;;;6284508;28;20274;-65
2022/06/16 12:18:43;;;;;;;0.77;0.77;;;21.70;84.00;;;;;;6284292;28;20323;-67
2022/06/16 12:21:56;;;;;;;0.90;0.90;;;21.60;84.10;;;;;;6281073;28;20481;-66
2022/06/16 12:25:10;;;;;;;0.60;0.60;;;21.60;82.20;;;;;;6281199;28;20308;-67
2022/06/16 12:28:27;;;;;;;0.82;0.70;;;21.60;83.70;;;;;;6284378;28;20299;-68
2022/06/16 12:31:42;;;;;;;0.63;0.63;;;21.80;84.10;;;;;;6284502;28;20535;-68
2022/06/16 12:35:01;;;;;;;1.30;0.70;;;21.90;83.90;;;;;;6284358;28;20299;-68
2022/06/16 12:38:15;;;;;;;0.70;0.70;;;22.00;84.90;;;;;;6284311;28;20295;-67
2022/06/16 12:41:27;;;;;;;2.63;0.70;;;22.20;85.90;;;;;;6284790;28;20287;-68
2022/06/16 12:44:38;;;;;;;2.20;0.60;;;22.20;78.00;;;;;;6283592;28;20299;-69
2022/06/16 12:47:49;;;;;;;0.60;0.60;;;22.20;74.00;;;;;;6284468;28;20290;-69
2022/06/16 12:50:57;;;;;;;0.60;0.60;;;22.20;73.70;;;;;;6284881;28;20275;-69
2022/06/16 12:54:07;;;;;;;1.35;0.60;;;22.30;74.00;;;;;;6283653;28;20290;-68
2022/06/16 12:57:17;;;;;;;1.00;1.00;;;22.30;71.30;;;;;;6288751;28;20271;-69
2022/06/16 13:00:28;;;;;;;0.70;0.70;;;22.20;69.60;;;;;;6289443;28;20271;-69
2022/06/16 13:03:41;;;;;;;1.13;1.13;;;22.10;69.30;;;;;;6288508;28;20303;-65
2022/06/16 13:06:47;;;;;;;1.00;1.00;;;22.10;69.80;;;;;;6289140;28;20267;-67
2022/06/16 13:09:52;;;;;;;1.55;0.80;;;22.30;71.20;;;;;;6284855;28;20478;-67
2022/06/16 13:13:00;;;;;;;1.85;0.80;;;22.40;71.40;;;;;;6263614;28;20300;-66
2022/06/16 13:16:08;;;;;;;3.63;1.13;;;22.40;73.10;;;;;;6264347;28;20277;-67
2022/06/16 13:19:19;;;;;;;1.17;1.13;;;22.30;80.10;;;;;;6263394;28;20300;-67
2022/06/16 13:22:31;;;;;;;3.70;1.15;;;22.00;92.00;;;;;;6263349;28;20603;-66
2022/06/16 13:26:16;;;;;;;1.40;1.30;;;22.00;93.50;;;;;;6280300;28;20303;-66
2022/06/16 13:29:23;;;;;;;1.13;1.13;;;21.90;94.30;;;;;;6269293;28;20300;-67
2022/06/16 13:32:42;;;;;;;2.38;1.00;;;21.80;94.40;;;;;;6263511;28;20292;-67
2022/06/16 13:36:14;;;;;;;2.60;1.08;;;21.90;94.70;;;;;;6263729;28;20277;-68
2022/06/16 13:40:23;;;;;;;5.07;1.00;;;21.60;94.50;;;;;;6262721;28;20504;-66
2022/06/16 13:43:36;;;;;;;2.15;1.30;;;21.40;95.30;;;;;;6232074;28;20300;-68
2022/06/16 13:47:21;;;;;;;2.63;1.10;;;21.30;95.80;;;;;;6263363;28;20268;-67
2022/06/16 13:50:44;;;;;;;1.13;1.13;;;21.30;95.50;;;;;;6263616;28;20275;-68
2022/06/16 13:53:51;;;;;;;1.20;1.20;;;21.20;96.80;;;;;;6287685;28;20303;-66
2022/06/16 13:56:56;;;;;;;1.35;1.20;;;21.10;97.60;;;;;;6287566;28;20467;-66
2022/06/16 14:00:06;;;;;;;2.83;1.30;;;20.90;98.70;;;;;;6287682;28;20300;-67
2022/06/16 14:03:22;;;;;;;1.88;1.20;;;20.90;98.40;;;;;;6287264;28;20300;-68
2022/06/16 14:06:32;;;;;;;2.42;1.10;;;20.80;99.40;;;;;;6286693;28;20268;-67
2022/06/16 14:09:39;;;;;;;6.63;1.20;;;20.60;99.40;;;;;;6287054;28;20426;-68
2022/06/16 14:13:06;;;;;;;1.58;1.40;;;20.60;99.90;;;;;;6290155;28;20303;-66
2022/06/16 14:16:22;;;;;;;2.38;1.20;;;20.40;99.30;;;;;;6312390;28;20266;-67
2022/06/16 14:19:33;;;;;;;3.45;1.20;;;20.40;99.50;;;;;;6311193;28;20295;-68
2022/06/16 14:22:45;;;;;;;1.60;1.13;;;20.70;99.00;;;;;;6309929;28;20302;-66
2022/06/16 14:25:54;;;;;;;2.28;1.20;;;20.90;98.50;;;;;;6293488;28;20307;-67
2022/06/16 14:29:04;;;;;;;1.08;1.08;;;21.00;98.00;;;;;;6286556;28;20473;-67
2022/06/16 14:32:18;;;;;;;4.95;1.30;;;21.10;98.30;;;;;;6286725;28;20276;-69
2022/06/16 14:35:28;;;;;;;4.40;1.30;;;21.30;98.30;;;;;;6286993;28;20271;-67
2022/06/16 14:38:41;;;;;;;1.02;1.02;;;21.40;97.80;;;;;;6284905;28;20295;-69
2022/06/16 14:41:49;;;;;;;1.40;1.30;;;21.40;98.50;;;;;;6286922;28;20456;-68
2022/06/16 14:44:59;;;;;;;1.20;1.17;;;21.70;97.20;;;;;;6286237;28;20306;-67
2022/06/16 14:48:07;;;;;;;2.70;1.35;;;22.20;97.20;;;;;;6285407;28;20355;-68
2022/06/16 14:51:17;;;;;;;5.88;1.30;;;22.90;95.50;;;;;;6285956;28;20267;-68
2022/06/16 14:54:27;;;;;;;1.33;1.20;;;23.30;95.10;;;;;;6285967;28;20488;-68
2022/06/16 14:57:40;;;;;;;1.35;1.20;;;23.00;94.90;;;;;;6285963;28;20382;-68
2022/06/16 15:00:50;;;;;;;5.43;1.38;;;22.70;95.20;;;;;;6286206;28;20275;-66
2022/06/16 15:03:58;;;;;;;1.50;1.33;;;22.50;95.50;;;;;;6285536;28;20298;-66
2022/06/16 15:07:04;;;;;;;1.40;1.30;;;22.00;95.30;;;;;;6286351;28;20275;-67
2022/06/16 15:10:17;;;;;;;2.15;2.00;;;22.10;95.40;;;;;;6278500;28;20276;-68
2022/06/16 15:13:26;;;;;;;2.08;1.40;;;22.00;95.40;;;;;;6260390;28;20299;-68
2022/06/16 15:19:58;;;;;;;2.30;1.70;;;22.00;95.00;;;;;;6259986;28;20588;-67
2022/06/16 15:23:04;;;;;;;4.63;1.55;;;22.00;95.40;;;;;;6260369;28;20311;-69
2022/06/16 15:26:23;;;;;;;1.58;1.48;;;21.90;95.60;;;;;;6283168;28;20295;-68
2022/06/16 15:29:33;;;;;;;1.65;1.60;;;21.90;95.90;;;;;;6265512;28;20299;-68
2022/06/16 15:36:12;;;;;;;4.28;1.30;;;21.90;96.20;;;;;;6261306;28;20571;-67
2022/06/16 15:39:20;;;;;;;1.50;1.50;;;21.80;95.80;;;;;;6260399;28;20303;-66
2022/06/16 15:42:27;;;;;;;3.22;1.40;;;21.80;95.60;;;;;;6260017;28;20279;-66
2022/06/16 15:45:33;;;;;;;2.90;1.20;;;21.80;95.80;;;;;;6278005;28;20290;-67
2022/06/16 15:48:39;;;;;;;2.55;1.58;;;21.70;95.70;;;;;;6284946;28;20298;-68
2022/06/16 15:51:45;;;;;;;2.17;1.35;;;21.50;96.00;;;;;;6285563;28;20279;-68
2022/06/16 15:54:55;;;;;;;1.70;1.20;;;21.50;96.00;;;;;;6284939;28;20302;-68
2022/06/16 15:58:07;;;;;;;1.23;1.00;;;21.40;96.80;;;;;;6285011;28;20315;-68
2022/06/16 16:01:13;;;;;;;1.20;1.20;;;21.10;97.30;;;;;;6285464;28;20439;-68
2022/06/16 16:04:24;;;;;;;2.53;1.10;;;21.00;99.00;;;;;;6284889;28;20295;-68
2022/06/16 16:07:30;;;;;;;1.25;1.20;;;20.90;99.90;;;;;;6285348;28;20386;-68
2022/06/16 16:10:36;;;;;;;1.42;1.20;;;20.90;99.90;;;;;;6285592;28;20263;-68
2022/06/16 16:13:59;;;;;;;1.67;1.40;;;20.80;99.90;;;;;;6285041;28;20303;-68
2022/06/16 16:17:09;;;;;;;1.17;1.17;;;20.60;99.90;;;;;;6284492;28;20451;-68
2022/06/16 16:20:30;;;;;;;1.73;1.02;;;20.30;99.90;;;;;;6285576;28;20271;-68
2022/06/16 16:23:44;;;;;;;1.40;1.23;;;20.30;99.90;;;;;;6284356;28;20323;-68
2022/06/16 16:27:01;;;;;;;1.35;1.35;;;20.30;99.90;;;;;;6284710;28;20267;-68
2022/06/16 16:30:09;;;;;;;1.58;1.02;;;20.20;99.90;;;;;;6285931;28;20295;-68
2022/06/16 16:33:29;;;;;;;2.40;1.08;;;20.00;99.90;;;;;;6289716;28;20299;-68
2022/06/16 16:36:37;;;;;;;1.25;1.15;;;19.90;99.90;;;;;;6290290;28;20268;-68
2022/06/16 16:39:43;;;;;;;1.40;1.40;;;19.80;99.90;;;;;;6289251;28;20298;-68
2022/06/16 16:43:04;;;;;;;3.53;2.08;;;19.60;99.90;;;;;;6288900;28;20461;-68
2022/06/16 16:46:20;;;;;;;7.00;2.53;;;19.50;99.90;;;;;;6289052;28;20287;-68
2022/06/16 16:49:50;;;;;;;11.13;3.38;;;19.50;99.90;;;;;;6289105;28;20300;-68
2022/06/16 16:52:56;;;;;;;6.18;2.33;;;19.40;99.90;;;;;;6289012;28;20490;-68
2022/06/16 16:56:08;;;;;;;3.80;2.28;;;19.30;99.90;;;;;;6289407;28;20428;-68
2022/06/16 16:59:20;;;;;;;11.30;4.05;;;19.10;99.90;;;;;;6289029;28;20295;-68
2022/06/16 17:02:27;;;;;;;11.13;5.22;;;19.00;99.90;;;;;;6288889;28;20614;-68
2022/06/16 17:05:35;;;;;;;12.52;4.25;;;19.10;99.90;;;;;;6289150;28;20454;-68